createdAt,value
2022-12-29T00:00:12.187Z,99371.13
2022-12-29T00:01:04.628Z,99371.52
2022-12-29T00:01:37.684Z,99369.04
2022-12-29T00:02:09.828Z,99367.78
2022-12-29T00:02:42.793Z,99368.55
2022-12-29T00:03:15.235Z,99369.96
2022-12-29T00:03:47.755Z,99367.11
2022-12-29T00:04:19.963Z,99372.09
2022-12-29T00:04:52.328Z,99372.23
2022-12-29T00:05:24.469Z,99368.88
2022-12-29T00:05:58.276Z,99367.98
2022-12-29T00:06:30.665Z,99369.37
2022-12-29T00:07:05.088Z,99370.55
2022-12-29T00:07:37.649Z,99361.88
2022-12-29T00:08:09.867Z,99363.27
2022-12-29T00:08:42.080Z,99369.11
2022-12-29T00:09:16.843Z,99370.17
2022-12-29T00:09:49.159Z,99366.51
2022-12-29T00:10:22.569Z,99367.17
2022-12-29T00:10:55.328Z,99373.36
2022-12-29T00:11:28.365Z,99373.36
2022-12-29T00:12:02.218Z,99374.27
2022-12-29T00:12:53.155Z,99380.61
2022-12-29T00:13:43.843Z,99372.02
2022-12-29T00:14:34.500Z,99366.55
2022-12-29T00:15:26.282Z,99362.46
2022-12-29T00:15:58.441Z,99370.66
2022-12-29T00:16:34.383Z,99365.18
2022-12-29T00:17:06.859Z,99370.13
2022-12-29T00:17:39.254Z,99365.58
2022-12-29T00:18:11.462Z,99371.79
2022-12-29T00:18:43.999Z,99363.60
2022-12-29T00:19:34.733Z,99364.20
2022-12-29T00:20:25.997Z,99360.66
2022-12-29T00:21:16.754Z,99365.77
2022-12-29T00:22:08.457Z,99365.45
2022-12-29T00:22:58.898Z,99358.95
2022-12-29T00:23:49.515Z,99366.41
2022-12-29T00:24:22.817Z,99361.55
2022-12-29T00:25:09.973Z,99364.66
2022-12-29T00:26:00.576Z,99359.81
2022-12-29T00:26:51.109Z,99356.84
2022-12-29T00:27:41.796Z,99360.39
2022-12-29T00:28:32.739Z,99359.67
2022-12-29T00:29:23.888Z,99354.70
2022-12-29T00:30:14.907Z,99356.75
2022-12-29T00:31:05.493Z,99358.27
2022-12-29T00:31:56.306Z,99354.22
2022-12-29T00:32:47.106Z,99359.73
2022-12-29T00:33:40.671Z,99360.21
2022-12-29T00:34:31.361Z,99359.55
2022-12-29T00:35:09.638Z,99354.90
2022-12-29T00:35:51.278Z,99357.70
2022-12-29T00:36:32.912Z,99360.75
2022-12-29T00:37:05.780Z,99363.17
2022-12-29T00:38:09.631Z,99357.61
2022-12-29T00:39:08.133Z,99355.97
2022-12-29T00:39:58.927Z,99356.20
2022-12-29T00:40:49.836Z,99357.89
2022-12-29T00:41:40.395Z,99359.83
2022-12-29T00:42:38.399Z,99359.31
2022-12-29T00:43:29.069Z,99359.47
2022-12-29T00:44:07.535Z,99359.16
2022-12-29T00:44:39.880Z,99360.39
2022-12-29T00:45:12.076Z,99360.91
2022-12-29T00:45:44.700Z,99359.61
2022-12-29T00:46:20.000Z,99356.64
2022-12-29T00:46:52.533Z,99357.98
2022-12-29T00:47:24.838Z,99356.59
2022-12-29T00:47:56.962Z,99358.28
2022-12-29T00:48:47.856Z,99361.20
2022-12-29T00:49:31.723Z,99363.83
2022-12-29T00:50:04.184Z,99368.52
2022-12-29T00:50:36.360Z,99365.77
2022-12-29T00:51:09.311Z,99365.02
2022-12-29T00:51:41.571Z,99367.33
2022-12-29T00:52:14.696Z,99365.84
2022-12-29T00:52:46.966Z,99374.89
2022-12-29T00:53:19.267Z,99369.13
2022-12-29T00:53:51.480Z,99369.04
2022-12-29T00:54:24.134Z,99366.21
2022-12-29T00:54:56.266Z,99364.75
2022-12-29T00:55:28.312Z,99366.05
2022-12-29T00:56:01.574Z,99368.78
2022-12-29T00:56:33.697Z,99368.68
2022-12-29T00:57:08.944Z,99366.56
2022-12-29T00:57:40.998Z,99364.34
2022-12-29T00:58:13.136Z,99362.89
2022-12-29T00:58:45.861Z,99364.75
2022-12-29T00:59:19.144Z,99363.88
2022-12-29T00:59:51.270Z,99367.98
2022-12-29T01:00:23.301Z,99363.75
2022-12-29T01:01:06.182Z,99366.30
2022-12-29T01:01:39.726Z,99361.92
2022-12-29T01:02:11.893Z,99361.63
2022-12-29T01:02:44.048Z,99366.25
2022-12-29T01:03:16.272Z,99367.08
2022-12-29T01:03:49.217Z,99365.00
2022-12-29T01:04:25.555Z,99366.34
2022-12-29T01:04:57.619Z,99370.14
2022-12-29T01:05:29.658Z,99363.94
2022-12-29T01:06:03.525Z,99364.30
2022-12-29T01:06:37.813Z,99362.36
2022-12-29T01:07:09.785Z,99362.02
2022-12-29T01:07:41.640Z,99358.23
2022-12-29T01:08:14.143Z,99357.65
2022-12-29T01:08:46.191Z,99359.88
2022-12-29T01:09:37.317Z,99348.05
2022-12-29T01:10:12.457Z,99351.53
2022-12-29T01:10:44.801Z,99357.80
2022-12-29T01:11:16.815Z,99358.02
2022-12-29T01:11:50.573Z,99361.14
2022-12-29T01:12:40.904Z,99357.50
2022-12-29T01:13:12.891Z,99361.80
2022-12-29T01:13:45.850Z,99355.67
2022-12-29T01:14:19.516Z,99355.31
2022-12-29T01:14:51.880Z,99350.64
2022-12-29T01:15:24.131Z,99355.13
2022-12-29T01:15:56.403Z,99350.30
2022-12-29T01:16:28.717Z,99352.13
2022-12-29T01:17:01.006Z,99357.13
2022-12-29T01:17:33.127Z,99348.11
2022-12-29T01:18:05.001Z,99346.94
2022-12-29T01:18:37.070Z,99344.86
2022-12-29T01:19:10.048Z,99343.63
2022-12-29T01:19:42.383Z,99341.55
2022-12-29T01:20:14.538Z,99347.27
2022-12-29T01:20:46.482Z,99334.81
2022-12-29T01:21:18.620Z,99334.61
2022-12-29T01:21:51.108Z,99341.48
2022-12-29T01:22:23.062Z,99337.48
2022-12-29T01:22:55.990Z,99335.34
2022-12-29T01:23:29.010Z,99336.35
2022-12-29T01:24:01.117Z,99337.39
2022-12-29T01:24:32.951Z,99331.64
2022-12-29T01:25:06.187Z,99337.10
2022-12-29T01:25:39.581Z,99335.13
2022-12-29T01:26:13.486Z,99327.02
2022-12-29T01:26:47.273Z,99333.36
2022-12-29T01:27:19.630Z,99334.73
2022-12-29T01:27:51.883Z,99334.70
2022-12-29T01:28:26.285Z,99336.39
2022-12-29T01:28:59.882Z,99330.52
2022-12-29T01:29:31.947Z,99332.44
2022-12-29T01:30:04.802Z,99336.21
2022-12-29T01:30:37.017Z,99332.74
2022-12-29T01:31:10.672Z,99334.96
2022-12-29T01:31:42.647Z,99330.85
2022-12-29T01:32:14.645Z,99331.35
2022-12-29T01:32:46.804Z,99336.02
2022-12-29T01:33:18.791Z,99334.46
2022-12-29T01:33:50.715Z,99337.53
2022-12-29T01:34:22.841Z,99339.60
2022-12-29T01:34:54.798Z,99340.60
2022-12-29T01:35:27.273Z,99339.17
2022-12-29T01:36:03.529Z,99338.16
2022-12-29T01:36:36.365Z,99338.54
2022-12-29T01:37:08.543Z,99341.27
2022-12-29T01:37:40.443Z,99341.30
2022-12-29T01:38:12.440Z,99343.38
2022-12-29T01:38:45.183Z,99340.64
2022-12-29T01:39:17.212Z,99338.38
2022-12-29T01:39:49.504Z,99338.05
2022-12-29T01:40:21.879Z,99343.02
2022-12-29T01:40:53.879Z,99340.27
2022-12-29T01:41:26.170Z,99340.10
2022-12-29T01:41:58.315Z,99340.80
2022-12-29T01:42:30.336Z,99341.99
2022-12-29T01:43:02.335Z,99337.15
2022-12-29T01:43:54.063Z,99329.85
2022-12-29T01:44:50.682Z,99336.14
2022-12-29T01:45:22.978Z,99335.86
2022-12-29T01:45:55.421Z,99334.70
2022-12-29T01:46:42.116Z,99333.62
2022-12-29T01:47:23.448Z,99332.98
2022-12-29T01:48:02.474Z,99334.58
2022-12-29T01:48:34.907Z,99334.70
2022-12-29T01:49:16.290Z,99329.17
2022-12-29T01:49:53.659Z,99331.48
2022-12-29T01:50:31.232Z,99328.07
2022-12-29T01:51:03.514Z,99329.83
2022-12-29T01:51:49.772Z,99324.64
2022-12-29T01:52:25.000Z,99325.55
2022-12-29T01:52:59.262Z,99323.50
2022-12-29T01:53:34.291Z,99324.73
2022-12-29T01:54:14.521Z,99326.48
2022-12-29T01:54:53.873Z,99319.33
2022-12-29T01:55:29.934Z,99319.55
2022-12-29T01:56:07.623Z,99322.30
2022-12-29T01:56:39.790Z,99320.04
2022-12-29T01:57:20.519Z,99319.70
2022-12-29T01:57:53.737Z,99312.63
2022-12-29T01:58:31.910Z,99315.84
2022-12-29T01:59:13.114Z,99315.05
2022-12-29T02:00:14.266Z,99312.56
2022-12-29T02:00:46.446Z,99315.46
2022-12-29T02:01:21.001Z,99315.33
2022-12-29T02:01:53.493Z,99306.76
2022-12-29T02:02:25.929Z,99312.39
2022-12-29T02:02:58.509Z,99316.23
2022-12-29T02:03:33.253Z,99309.23
2022-12-29T02:04:05.358Z,99311.09
2022-12-29T02:04:44.889Z,99302.04
2022-12-29T02:05:48.073Z,99305.96
2022-12-29T02:06:30.241Z,99301.54
2022-12-29T02:07:11.465Z,99303.40
2022-12-29T02:07:44.189Z,99295.12
2022-12-29T02:08:17.252Z,99296.13
2022-12-29T02:08:52.986Z,99302.84
2022-12-29T02:09:25.120Z,99296.75
2022-12-29T02:09:58.247Z,99299.81
2022-12-29T02:10:33.893Z,99298.73
2022-12-29T02:11:06.505Z,99297.85
2022-12-29T02:11:40.135Z,99296.23
2022-12-29T02:12:12.108Z,99296.90
2022-12-29T02:12:46.013Z,99291.50
2022-12-29T02:13:18.154Z,99290.08
2022-12-29T02:13:50.377Z,99294.30
2022-12-29T02:14:22.310Z,99290.23
2022-12-29T02:15:00.797Z,99296.98
2022-12-29T02:16:13.969Z,99292.11
2022-12-29T02:17:14.118Z,99290.76
2022-12-29T02:18:31.152Z,99293.98
2022-12-29T02:19:12.112Z,99293.17
2022-12-29T02:20:02.678Z,99294.11
2022-12-29T02:20:34.903Z,99289.80
2022-12-29T02:21:31.397Z,99292.40
2022-12-29T02:22:10.505Z,99290.16
2022-12-29T02:23:27.013Z,99290.54
2022-12-29T02:24:24.188Z,99290.52
2022-12-29T02:25:10.963Z,99289.98
2022-12-29T02:26:00.911Z,99283.50
2022-12-29T02:27:11.752Z,99287.80
2022-12-29T02:27:53.759Z,99283.61
2022-12-29T02:28:44.096Z,99285.55
2022-12-29T02:29:42.279Z,99281.45
2022-12-29T02:30:49.945Z,99289.70
2022-12-29T02:31:51.996Z,99288.72
2022-12-29T02:32:32.973Z,99282.89
2022-12-29T02:33:27.835Z,99283.27
2022-12-29T02:34:18.046Z,99281.02
2022-12-29T02:34:56.744Z,99281.35
2022-12-29T02:35:45.126Z,99280.13
2022-12-29T02:36:43.481Z,99274.64
2022-12-29T02:37:38.388Z,99270.70
2022-12-29T02:38:31.892Z,99272.30
2022-12-29T02:39:25.966Z,99274.98
2022-12-29T02:40:13.624Z,99270.20
2022-12-29T02:40:54.925Z,99261.36
2022-12-29T02:42:04.257Z,99260.94
2022-12-29T02:42:45.364Z,99262.95
2022-12-29T02:43:36.318Z,99259.22
2022-12-29T02:44:16.195Z,99260.89
2022-12-29T02:44:53.538Z,99260.55
2022-12-29T02:45:48.845Z,99257.07
2022-12-29T02:46:36.675Z,99256.51
2022-12-29T02:47:44.590Z,99251.79
2022-12-29T02:48:55.243Z,99248.41
2022-12-29T02:49:49.112Z,99246.81
2022-12-29T02:50:21.321Z,99254.77
2022-12-29T02:51:07.720Z,99251.32
2022-12-29T02:51:44.644Z,99247.68
2022-12-29T02:52:26.140Z,99249.95
2022-12-29T02:53:00.590Z,99243.67
2022-12-29T02:53:53.653Z,99239.02
2022-12-29T02:54:44.333Z,99249.30
2022-12-29T02:55:16.588Z,99255.54
2022-12-29T02:55:52.897Z,99254.98
2022-12-29T02:56:24.855Z,99261.30
2022-12-29T02:56:56.817Z,99255.55
2022-12-29T02:57:35.169Z,99255.29
2022-12-29T02:58:17.147Z,99251.19
2022-12-29T02:58:49.485Z,99244.39
2022-12-29T02:59:22.606Z,99250.89
2022-12-29T03:00:08.154Z,99253.52
2022-12-29T03:00:55.504Z,99253.56
2022-12-29T03:01:37.924Z,99249.59
2022-12-29T03:02:18.927Z,99250.16
2022-12-29T03:03:03.659Z,99251.48
2022-12-29T03:04:01.056Z,99255.05
2022-12-29T03:04:47.851Z,99259.63
2022-12-29T03:05:30.432Z,99258.26
2022-12-29T03:06:12.701Z,99266.56
2022-12-29T03:07:12.041Z,99265.20
2022-12-29T03:08:04.041Z,99263.09
2022-12-29T03:08:50.172Z,99263.67
2022-12-29T03:09:54.689Z,99265.84
2022-12-29T03:10:51.673Z,99267.07
2022-12-29T03:11:48.981Z,99262.51
2022-12-29T03:12:48.301Z,99256.98
2022-12-29T03:13:51.577Z,99257.91
2022-12-29T03:15:08.230Z,99254.81
2022-12-29T03:16:04.416Z,99257.94
2022-12-29T03:16:47.910Z,99252.86
2022-12-29T03:17:29.039Z,99260.08
2022-12-29T03:18:24.384Z,99264.15
2022-12-29T03:19:11.282Z,99258.96
2022-12-29T03:19:49.983Z,99258.63
2022-12-29T03:20:27.386Z,99260.35
2022-12-29T03:21:07.301Z,99250.48
2022-12-29T03:22:16.367Z,99258.19
2022-12-29T03:22:52.501Z,99259.10
2022-12-29T03:23:26.383Z,99259.80
2022-12-29T03:23:58.583Z,99255.57
2022-12-29T03:24:35.373Z,99257.92
2022-12-29T03:25:13.479Z,99253.86
2022-12-29T03:25:53.451Z,99257.77
2022-12-29T03:26:25.577Z,99257.20
2022-12-29T03:27:01.698Z,99257.86
2022-12-29T03:27:39.122Z,99260.95
2022-12-29T03:28:22.172Z,99258.42
2022-12-29T03:28:58.008Z,99255.02
2022-12-29T03:29:33.727Z,99263.30
2022-12-29T03:30:07.760Z,99258.03
2022-12-29T03:30:42.323Z,99254.90
2022-12-29T03:31:16.794Z,99257.77
2022-12-29T03:31:52.175Z,99260.10
2022-12-29T03:32:34.162Z,99259.41
2022-12-29T03:33:10.602Z,99264.11
2022-12-29T03:33:44.889Z,99265.58
2022-12-29T03:34:21.375Z,99259.16
2022-12-29T03:34:55.596Z,99263.80
2022-12-29T03:35:31.933Z,99266.57
2022-12-29T03:36:07.881Z,99261.52
2022-12-29T03:36:46.351Z,99261.67
2022-12-29T03:37:24.625Z,99264.96
2022-12-29T03:38:01.750Z,99261.68
2022-12-29T03:38:44.723Z,99263.59
2022-12-29T03:39:19.270Z,99263.42
2022-12-29T03:39:51.503Z,99262.52
2022-12-29T03:40:25.507Z,99261.25
2022-12-29T03:41:00.976Z,99261.37
2022-12-29T03:41:35.081Z,99260.11
2022-12-29T03:42:18.887Z,99259.32
2022-12-29T03:42:51.786Z,99256.73
2022-12-29T03:43:24.131Z,99258.25
2022-12-29T03:43:56.054Z,99257.69
2022-12-29T03:44:39.870Z,99258.02
2022-12-29T03:45:11.893Z,99257.36
2022-12-29T03:45:43.958Z,99252.33
2022-12-29T03:46:16.088Z,99249.43
2022-12-29T03:46:48.025Z,99251.32
2022-12-29T03:47:20.028Z,99249.61
2022-12-29T03:47:53.800Z,99254.43
2022-12-29T03:48:25.822Z,99251.87
2022-12-29T03:48:57.935Z,99250.69
2022-12-29T03:49:30.420Z,99252.69
2022-12-29T03:50:02.782Z,99253.58
2022-12-29T03:50:34.758Z,99248.83
2022-12-29T03:51:06.723Z,99253.48
2022-12-29T03:51:38.693Z,99251.02
2022-12-29T03:52:10.579Z,99253.41
2022-12-29T03:52:42.642Z,99253.92
2022-12-29T03:53:14.683Z,99258.05
2022-12-29T03:53:46.646Z,99256.14
2022-12-29T03:54:18.698Z,99259.75
2022-12-29T03:54:50.680Z,99256.11
2022-12-29T03:55:22.745Z,99261.66
2022-12-29T03:55:54.775Z,99265.73
2022-12-29T03:56:26.817Z,99262.89
2022-12-29T03:56:59.122Z,99267.23
2022-12-29T03:57:31.239Z,99268.58
2022-12-29T03:58:03.155Z,99268.94
2022-12-29T03:58:35.426Z,99269.11
2022-12-29T03:59:07.612Z,99268.25
2022-12-29T03:59:39.485Z,99271.83
2022-12-29T04:00:12.454Z,99266.59
2022-12-29T04:00:44.543Z,99266.70
2022-12-29T04:01:16.834Z,99266.01
2022-12-29T04:01:50.563Z,99269.52
2022-12-29T04:02:22.882Z,99270.34
2022-12-29T04:02:55.612Z,99269.81
2022-12-29T04:03:27.772Z,99268.95
2022-12-29T04:03:59.932Z,99265.98
2022-12-29T04:04:31.888Z,99267.13
2022-12-29T04:05:05.142Z,99266.92
2022-12-29T04:05:37.022Z,99266.27
2022-12-29T04:06:09.353Z,99266.76
2022-12-29T04:06:41.536Z,99266.56
2022-12-29T04:07:13.496Z,99262.05
2022-12-29T04:07:45.450Z,99257.56
2022-12-29T04:08:17.452Z,99255.99
2022-12-29T04:08:49.788Z,99260.39
2022-12-29T04:09:21.711Z,99257.38
2022-12-29T04:09:53.742Z,99258.45
2022-12-29T04:10:25.874Z,99258.37
2022-12-29T04:10:58.028Z,99257.83
2022-12-29T04:11:33.251Z,99254.39
2022-12-29T04:12:06.677Z,99250.94
2022-12-29T04:12:39.438Z,99252.66
2022-12-29T04:13:11.663Z,99251.95
2022-12-29T04:13:43.673Z,99253.15
2022-12-29T04:14:15.591Z,99256.00
2022-12-29T04:14:47.853Z,99258.05
2022-12-29T04:15:19.859Z,99254.23
2022-12-29T04:15:51.912Z,99261.49
2022-12-29T04:16:24.080Z,99260.01
2022-12-29T04:16:56.431Z,99261.23
2022-12-29T04:17:28.546Z,99263.27
2022-12-29T04:18:00.599Z,99263.07
2022-12-29T04:18:32.735Z,99262.85
2022-12-29T04:19:06.513Z,99260.41
2022-12-29T04:19:40.116Z,99268.40
2022-12-29T04:20:30.685Z,99266.84
2022-12-29T04:21:04.102Z,99271.02
2022-12-29T04:21:36.042Z,99274.18
2022-12-29T04:22:08.004Z,99273.86
2022-12-29T04:22:40.125Z,99278.34
2022-12-29T04:23:12.118Z,99273.67
2022-12-29T04:23:44.229Z,99277.44
2022-12-29T04:24:16.314Z,99270.52
2022-12-29T04:24:50.872Z,99275.50
2022-12-29T04:25:22.803Z,99273.61
2022-12-29T04:25:54.850Z,99274.76
2022-12-29T04:26:26.896Z,99273.70
2022-12-29T04:26:58.863Z,99271.05
2022-12-29T04:27:30.870Z,99273.81
2022-12-29T04:28:03.241Z,99270.67
2022-12-29T04:28:36.417Z,99270.83
2022-12-29T04:29:08.829Z,99275.65
2022-12-29T04:29:40.852Z,99273.18
2022-12-29T04:30:13.066Z,99275.91
2022-12-29T04:30:47.281Z,99275.52
2022-12-29T04:31:19.556Z,99281.42
2022-12-29T04:31:51.627Z,99280.35
2022-12-29T04:32:23.505Z,99285.85
2022-12-29T04:32:55.743Z,99284.61
2022-12-29T04:33:28.311Z,99287.48
2022-12-29T04:34:00.711Z,99286.10
2022-12-29T04:34:32.806Z,99283.15
2022-12-29T04:35:06.313Z,99283.64
2022-12-29T04:35:38.247Z,99282.88
2022-12-29T04:36:10.328Z,99285.27
2022-12-29T04:36:42.266Z,99280.38
2022-12-29T04:37:14.271Z,99282.90
2022-12-29T04:37:46.392Z,99282.02
2022-12-29T04:38:18.669Z,99276.38
2022-12-29T04:38:50.575Z,99278.35
2022-12-29T04:39:22.552Z,99277.71
2022-12-29T04:39:54.429Z,99275.21
2022-12-29T04:40:26.446Z,99281.28
2022-12-29T04:41:02.466Z,99275.89
2022-12-29T04:41:34.816Z,99276.79
2022-12-29T04:42:06.848Z,99273.30
2022-12-29T04:42:40.027Z,99264.28
2022-12-29T04:43:12.900Z,99267.42
2022-12-29T04:43:45.008Z,99266.55
2022-12-29T04:44:16.955Z,99266.73
2022-12-29T04:44:50.159Z,99266.36
2022-12-29T04:45:22.397Z,99261.02
2022-12-29T04:45:55.059Z,99260.48
2022-12-29T04:46:27.247Z,99260.31
2022-12-29T04:46:59.290Z,99257.10
2022-12-29T04:47:31.269Z,99257.81
2022-12-29T04:48:03.453Z,99258.46
2022-12-29T04:48:35.442Z,99263.65
2022-12-29T04:49:09.072Z,99261.79
2022-12-29T04:49:41.237Z,99258.54
2022-12-29T04:50:13.188Z,99259.35
2022-12-29T04:50:48.728Z,99252.81
2022-12-29T04:51:20.836Z,99251.11
2022-12-29T04:51:52.883Z,99249.20
2022-12-29T04:52:24.857Z,99253.17
2022-12-29T04:52:56.720Z,99250.52
2022-12-29T04:53:28.610Z,99243.48
2022-12-29T04:54:00.786Z,99248.45
2022-12-29T04:54:32.676Z,99246.52
2022-12-29T04:55:06.033Z,99249.06
2022-12-29T04:55:37.923Z,99251.98
2022-12-29T04:56:09.918Z,99248.33
2022-12-29T04:56:41.840Z,99249.83
2022-12-29T04:57:13.907Z,99252.27
2022-12-29T04:57:46.507Z,99247.89
2022-12-29T04:58:22.854Z,99243.33
2022-12-29T04:58:55.232Z,99249.54
2022-12-29T04:59:27.372Z,99246.80
2022-12-29T04:59:59.358Z,99253.73
2022-12-29T05:00:31.423Z,99247.65
2022-12-29T05:01:03.542Z,99247.48
2022-12-29T05:01:35.621Z,99252.85
2022-12-29T05:02:08.136Z,99253.88
2022-12-29T05:02:40.547Z,99249.92
2022-12-29T05:03:12.988Z,99248.34
2022-12-29T05:03:45.071Z,99246.48
2022-12-29T05:04:17.115Z,99239.42
2022-12-29T05:04:49.458Z,99246.13
2022-12-29T05:05:21.367Z,99242.16
2022-12-29T05:05:57.569Z,99238.16
2022-12-29T05:06:29.609Z,99242.81
2022-12-29T05:07:01.673Z,99237.84
2022-12-29T05:07:34.081Z,99240.77
2022-12-29T05:08:06.222Z,99236.17
2022-12-29T05:08:38.254Z,99233.87
2022-12-29T05:09:10.391Z,99231.09
2022-12-29T05:09:42.386Z,99233.30
2022-12-29T05:10:14.554Z,99231.02
2022-12-29T05:10:46.872Z,99226.64
2022-12-29T05:11:18.956Z,99229.89
2022-12-29T05:11:50.774Z,99222.08
2022-12-29T05:12:22.735Z,99223.89
2022-12-29T05:12:54.867Z,99223.83
2022-12-29T05:13:26.793Z,99223.81
2022-12-29T05:13:58.830Z,99212.71
2022-12-29T05:14:30.882Z,99213.56
2022-12-29T05:15:04.280Z,99219.41
2022-12-29T05:15:36.278Z,99206.08
2022-12-29T05:16:08.446Z,99208.09
2022-12-29T05:16:40.722Z,99208.41
2022-12-29T05:17:12.756Z,99208.33
2022-12-29T05:17:44.700Z,99207.80
2022-12-29T05:18:17.506Z,99209.28
2022-12-29T05:18:50.126Z,99213.82
2022-12-29T05:19:22.116Z,99212.56
2022-12-29T05:19:54.132Z,99214.27
2022-12-29T05:20:26.395Z,99215.63
2022-12-29T05:20:58.546Z,99213.91
2022-12-29T05:21:30.684Z,99216.52
2022-12-29T05:22:02.750Z,99215.45
2022-12-29T05:22:34.844Z,99217.98
2022-12-29T05:23:06.814Z,99220.90
2022-12-29T05:23:38.901Z,99215.96
2022-12-29T05:24:10.968Z,99220.52
2022-12-29T05:24:43.035Z,99223.20
2022-12-29T05:25:15.139Z,99218.28
2022-12-29T05:25:47.295Z,99224.09
2022-12-29T05:26:19.387Z,99221.30
2022-12-29T05:26:51.797Z,99223.19
2022-12-29T05:27:24.039Z,99227.98
2022-12-29T05:27:55.938Z,99226.36
2022-12-29T05:28:27.945Z,99226.14
2022-12-29T05:29:00.537Z,99222.34
2022-12-29T05:29:32.625Z,99221.04
2022-12-29T05:30:04.902Z,99233.52
2022-12-29T05:30:36.939Z,99227.59
2022-12-29T05:31:08.913Z,99232.47
2022-12-29T05:31:40.862Z,99226.66
2022-12-29T05:32:12.984Z,99228.50
2022-12-29T05:32:44.917Z,99226.77
2022-12-29T05:33:18.631Z,99225.30
2022-12-29T05:33:50.651Z,99227.55
2022-12-29T05:34:22.560Z,99222.87
2022-12-29T05:34:54.679Z,99224.27
2022-12-29T05:35:26.813Z,99226.34
2022-12-29T05:36:07.883Z,99228.04
2022-12-29T05:36:40.445Z,99223.09
2022-12-29T05:37:12.673Z,99224.65
2022-12-29T05:37:44.802Z,99223.80
2022-12-29T05:38:16.904Z,99226.33
2022-12-29T05:38:51.192Z,99227.55
2022-12-29T05:39:23.389Z,99225.83
2022-12-29T05:39:56.180Z,99232.20
2022-12-29T05:40:28.478Z,99226.64
2022-12-29T05:41:00.834Z,99224.50
2022-12-29T05:41:33.262Z,99221.67
2022-12-29T05:42:05.495Z,99223.18
2022-12-29T05:42:37.419Z,99225.27
2022-12-29T05:43:09.581Z,99228.80
2022-12-29T05:43:41.671Z,99225.17
2022-12-29T05:44:13.776Z,99226.02
2022-12-29T05:44:45.772Z,99231.55
2022-12-29T05:45:17.821Z,99223.02
2022-12-29T05:45:50.639Z,99222.31
2022-12-29T05:46:22.691Z,99221.82
2022-12-29T05:46:55.084Z,99224.75
2022-12-29T05:47:27.213Z,99225.21
2022-12-29T05:47:59.329Z,99227.77
2022-12-29T05:48:36.011Z,99227.51
2022-12-29T05:49:09.810Z,99227.48
2022-12-29T05:49:41.974Z,99226.98
2022-12-29T05:50:13.886Z,99225.02
2022-12-29T05:50:50.066Z,99219.94
2022-12-29T05:51:22.173Z,99215.31
2022-12-29T05:51:54.820Z,99219.80
2022-12-29T05:52:26.905Z,99218.70
2022-12-29T05:52:58.874Z,99216.30
2022-12-29T05:53:30.826Z,99215.70
2022-12-29T05:54:03.313Z,99226.58
2022-12-29T05:54:36.095Z,99216.77
2022-12-29T05:55:08.307Z,99213.30
2022-12-29T05:55:46.605Z,99220.58
2022-12-29T05:56:20.941Z,99222.30
2022-12-29T05:56:53.142Z,99223.23
2022-12-29T05:57:25.279Z,99219.59
2022-12-29T05:57:58.476Z,99213.68
2022-12-29T05:58:31.083Z,99215.59
2022-12-29T05:59:03.040Z,99213.48
2022-12-29T05:59:35.099Z,99209.69
2022-12-29T06:00:08.477Z,99210.68
2022-12-29T06:00:40.950Z,99212.56
2022-12-29T06:01:12.862Z,99215.00
2022-12-29T06:01:45.141Z,99216.38
2022-12-29T06:02:17.300Z,99215.33
2022-12-29T06:02:50.086Z,99216.64
2022-12-29T06:03:22.557Z,99217.90
2022-12-29T06:03:54.937Z,99216.48
2022-12-29T06:04:27.024Z,99217.15
2022-12-29T06:04:59.158Z,99216.09
2022-12-29T06:05:31.495Z,99216.55
2022-12-29T06:06:03.862Z,99214.81
2022-12-29T06:06:35.956Z,99210.20
2022-12-29T06:07:08.171Z,99210.32
2022-12-29T06:07:40.276Z,99219.55
2022-12-29T06:08:12.849Z,99216.82
2022-12-29T06:08:44.930Z,99214.91
2022-12-29T06:09:16.912Z,99215.70
2022-12-29T06:09:49.453Z,99216.11
2022-12-29T06:10:21.674Z,99223.06
2022-12-29T06:10:53.824Z,99216.79
2022-12-29T06:11:26.235Z,99214.66
2022-12-29T06:11:58.291Z,99211.66
2022-12-29T06:12:30.305Z,99215.27
2022-12-29T06:13:04.427Z,99210.51
2022-12-29T06:13:36.441Z,99209.84
2022-12-29T06:14:08.411Z,99210.52
2022-12-29T06:14:40.455Z,99209.30
2022-12-29T06:15:12.666Z,99208.60
2022-12-29T06:15:44.721Z,99213.09
2022-12-29T06:16:17.007Z,99212.89
2022-12-29T06:16:49.524Z,99204.69
2022-12-29T06:17:21.861Z,99207.48
2022-12-29T06:17:53.993Z,99208.98
2022-12-29T06:18:25.998Z,99207.38
2022-12-29T06:18:57.986Z,99207.67
2022-12-29T06:19:30.129Z,99212.46
2022-12-29T06:20:03.123Z,99214.84
2022-12-29T06:20:35.078Z,99209.48
2022-12-29T06:21:07.071Z,99208.42
2022-12-29T06:21:39.558Z,99209.59
2022-12-29T06:22:12.775Z,99211.65
2022-12-29T06:22:44.720Z,99207.92
2022-12-29T06:23:19.042Z,99216.58
2022-12-29T06:23:51.070Z,99214.63
2022-12-29T06:24:23.355Z,99212.32
2022-12-29T06:24:57.884Z,99212.71
2022-12-29T06:25:34.733Z,99210.18
2022-12-29T06:26:06.837Z,99217.13
2022-12-29T06:26:39.408Z,99206.89
2022-12-29T06:27:11.762Z,99201.25
2022-12-29T06:27:44.410Z,99205.05
2022-12-29T06:28:17.778Z,99210.70
2022-12-29T06:28:50.152Z,99202.19
2022-12-29T06:29:22.176Z,99207.36
2022-12-29T06:29:54.373Z,99204.54
2022-12-29T06:30:26.749Z,99201.59
2022-12-29T06:30:58.696Z,99202.60
2022-12-29T06:31:30.666Z,99200.50
2022-12-29T06:32:02.681Z,99194.27
2022-12-29T06:32:34.834Z,99200.94
2022-12-29T06:33:08.791Z,99199.70
2022-12-29T06:33:40.980Z,99197.70
2022-12-29T06:34:13.584Z,99197.63
2022-12-29T06:34:45.667Z,99194.64
2022-12-29T06:35:18.272Z,99205.48
2022-12-29T06:35:50.174Z,99203.90
2022-12-29T06:36:22.889Z,99205.96
2022-12-29T06:36:55.006Z,99200.59
2022-12-29T06:37:28.378Z,99206.80
2022-12-29T06:38:00.501Z,99207.87
2022-12-29T06:38:32.831Z,99206.41
2022-12-29T06:39:04.888Z,99215.58
2022-12-29T06:39:37.223Z,99211.56
2022-12-29T06:40:09.987Z,99215.66
2022-12-29T06:40:45.348Z,99207.64
2022-12-29T06:41:17.497Z,99214.16
2022-12-29T06:41:53.960Z,99207.62
2022-12-29T06:42:26.148Z,99211.20
2022-12-29T06:42:58.219Z,99207.08
2022-12-29T06:43:31.152Z,99213.36
2022-12-29T06:44:03.284Z,99215.55
2022-12-29T06:44:35.375Z,99216.14
2022-12-29T06:45:08.090Z,99213.77
2022-12-29T06:45:41.176Z,99215.64
2022-12-29T06:46:13.434Z,99213.75
2022-12-29T06:46:45.467Z,99224.14
2022-12-29T06:47:17.522Z,99213.89
2022-12-29T06:47:49.682Z,99227.08
2022-12-29T06:48:21.673Z,99222.48
2022-12-29T06:48:53.724Z,99223.99
2022-12-29T06:49:25.644Z,99221.20
2022-12-29T06:49:57.746Z,99225.98
2022-12-29T06:50:29.799Z,99225.23
2022-12-29T06:51:01.677Z,99223.80
2022-12-29T06:51:33.844Z,99228.83
2022-12-29T06:52:10.743Z,99228.06
2022-12-29T06:52:44.946Z,99223.22
2022-12-29T06:53:16.884Z,99225.10
2022-12-29T06:53:49.116Z,99222.32
2022-12-29T06:54:21.207Z,99221.58
2022-12-29T06:54:53.125Z,99223.11
2022-12-29T06:55:25.092Z,99211.36
2022-12-29T06:55:57.245Z,99221.20
2022-12-29T06:56:29.362Z,99221.36
2022-12-29T06:57:01.321Z,99223.55
2022-12-29T06:57:33.254Z,99226.52
2022-12-29T06:58:05.714Z,99224.58
2022-12-29T06:58:38.154Z,99227.80
2022-12-29T06:59:10.586Z,99227.42
2022-12-29T06:59:42.605Z,99225.38
2022-12-29T07:00:18.125Z,99222.27
2022-12-29T07:00:54.378Z,99225.19
2022-12-29T07:01:26.625Z,99222.27
2022-12-29T07:01:58.768Z,99223.66
2022-12-29T07:02:30.957Z,99212.28
2022-12-29T07:03:03.279Z,99222.52
2022-12-29T07:03:36.812Z,99219.89